createdAt,value
2022-11-29T00:01:34.494Z,3.05
2022-11-29T00:04:02.935Z,3.01
2022-11-29T00:06:32.202Z,2.99
2022-11-29T00:09:01.350Z,2.99
2022-11-29T00:11:51.355Z,2.98
2022-11-29T00:14:20.507Z,2.98
2022-11-29T00:16:51.950Z,3.01
2022-11-29T00:19:20.481Z,2.98
2022-11-29T00:21:48.728Z,3.01
2022-11-29T00:24:17.322Z,3.01
2022-11-29T00:26:47.171Z,3.02
2022-11-29T00:29:15.543Z,3.03
2022-11-29T00:31:44.157Z,3.01
2022-11-29T00:34:12.630Z,2.99
2022-11-29T00:36:40.975Z,2.98
2022-11-29T00:39:11.977Z,2.99
2022-11-29T00:41:40.553Z,2.97
2022-11-29T00:44:13.941Z,2.98
2022-11-29T00:46:45.152Z,2.96
2022-11-29T00:49:13.408Z,2.96
2022-11-29T00:51:42.026Z,2.95
2022-11-29T00:54:10.344Z,2.93
2022-11-29T00:56:38.678Z,2.93
2022-11-29T00:59:07.041Z,2.92
2022-11-29T01:01:36.889Z,2.94
2022-11-29T01:04:05.629Z,2.96
2022-11-29T01:06:34.241Z,2.95
2022-11-29T01:09:02.487Z,2.96
2022-11-29T01:11:30.922Z,2.94
2022-11-29T01:14:00.023Z,2.90
2022-11-29T01:16:28.440Z,2.96
2022-11-29T01:18:58.240Z,2.93
2022-11-29T01:21:26.838Z,2.92
2022-11-29T01:23:55.108Z,2.96
2022-11-29T01:26:24.866Z,2.98
2022-11-29T01:28:54.159Z,2.99
2022-11-29T01:31:23.724Z,2.99
2022-11-29T01:33:54.543Z,3.00
2022-11-29T01:36:24.292Z,3.02
2022-11-29T01:38:52.631Z,3.02
2022-11-29T01:41:22.188Z,3.04
2022-11-29T01:44:02.202Z,3.02
2022-11-29T01:46:31.440Z,2.99
2022-11-29T01:49:02.239Z,2.99
2022-11-29T01:51:31.913Z,3.00
2022-11-29T01:54:00.323Z,3.02
2022-11-29T01:56:29.343Z,3.04
2022-11-29T01:58:57.641Z,3.08
2022-11-29T02:01:26.442Z,3.12
2022-11-29T02:03:55.001Z,3.13
2022-11-29T02:06:23.271Z,3.15
2022-11-29T02:08:52.983Z,3.17
2022-11-29T02:12:02.713Z,3.19
2022-11-29T02:14:49.754Z,3.20
2022-11-29T02:17:22.153Z,3.23
2022-11-29T02:20:23.926Z,3.24
2022-11-29T02:22:53.776Z,3.26
2022-11-29T02:25:45.695Z,3.25
2022-11-29T02:28:47.024Z,3.28
2022-11-29T02:31:30.513Z,3.29
2022-11-29T02:34:26.280Z,3.31
2022-11-29T02:37:05.999Z,3.29
2022-11-29T02:40:23.824Z,3.29
2022-11-29T02:43:08.468Z,3.28
2022-11-29T02:45:51.500Z,3.30
2022-11-29T02:48:29.983Z,3.30
2022-11-29T02:51:02.346Z,3.27
2022-11-29T02:53:33.601Z,3.25
2022-11-29T02:56:06.084Z,3.27
2022-11-29T02:58:38.387Z,3.27
2022-11-29T03:01:10.636Z,3.29
2022-11-29T03:03:40.651Z,3.29
2022-11-29T03:06:16.655Z,3.28
2022-11-29T03:08:48.161Z,3.28
2022-11-29T03:11:21.669Z,3.28
2022-11-29T03:13:53.621Z,3.28
2022-11-29T03:16:30.259Z,3.26
2022-11-29T03:19:06.672Z,3.27
2022-11-29T03:21:42.975Z,3.25
2022-11-29T03:24:15.108Z,3.26
2022-11-29T03:26:45.509Z,3.29
2022-11-29T03:29:17.313Z,3.31
2022-11-29T03:31:47.553Z,3.34
2022-11-29T03:34:18.742Z,3.36
2022-11-29T03:36:51.264Z,3.35
2022-11-29T03:39:20.762Z,3.36
2022-11-29T03:41:50.785Z,3.38
2022-11-29T03:44:19.879Z,3.39
2022-11-29T03:46:51.740Z,3.39
2022-11-29T03:49:24.095Z,3.40
2022-11-29T03:52:00.324Z,3.41
2022-11-29T03:54:30.074Z,3.40
2022-11-29T03:56:58.915Z,3.39
2022-11-29T03:59:35.432Z,3.39
2022-11-29T04:02:27.412Z,3.39
2022-11-29T04:05:21.449Z,3.40
2022-11-29T04:08:01.585Z,3.38
2022-11-29T04:10:59.329Z,3.36
2022-11-29T04:13:53.613Z,3.37
2022-11-29T04:16:55.573Z,3.37
2022-11-29T04:19:39.794Z,3.36
2022-11-29T04:22:34.364Z,3.39
2022-11-29T04:25:31.154Z,3.37
2022-11-29T04:28:20.971Z,3.36
2022-11-29T04:30:53.179Z,3.35
2022-11-29T04:33:49.691Z,3.37
2022-11-29T04:36:41.299Z,3.36
2022-11-29T04:39:31.469Z,3.37
2022-11-29T04:42:29.204Z,3.39
2022-11-29T04:45:07.682Z,3.40
2022-11-29T04:47:53.296Z,3.40
2022-11-29T04:50:41.692Z,3.41
2022-11-29T04:53:31.531Z,3.44
2022-11-29T04:56:06.921Z,3.45
2022-11-29T04:58:38.967Z,3.45
2022-11-29T05:01:13.534Z,3.46
2022-11-29T05:03:45.756Z,3.47
2022-11-29T05:06:20.936Z,3.46
2022-11-29T05:08:53.056Z,3.47
2022-11-29T05:11:27.043Z,3.46
2022-11-29T05:13:58.436Z,3.45
2022-11-29T05:16:48.430Z,3.47
2022-11-29T05:19:34.755Z,3.46
2022-11-29T05:22:08.535Z,3.47
2022-11-29T05:24:52.460Z,3.48
2022-11-29T05:27:27.072Z,3.48
2022-11-29T05:29:59.652Z,3.49
2022-11-29T05:32:31.217Z,3.49
2022-11-29T05:35:32.564Z,3.49
2022-11-29T05:38:03.762Z,3.50
2022-11-29T05:40:45.506Z,3.51
2022-11-29T05:43:24.072Z,3.51
2022-11-29T05:45:55.828Z,3.51
2022-11-29T05:48:26.477Z,3.51
2022-11-29T05:51:02.319Z,3.50
2022-11-29T05:53:32.677Z,3.50
2022-11-29T05:56:04.000Z,3.48
2022-11-29T05:58:38.539Z,3.48
2022-11-29T06:01:18.052Z,3.47
2022-11-29T06:03:52.290Z,3.48
2022-11-29T06:06:23.868Z,3.49
2022-11-29T06:08:53.735Z,3.51
2022-11-29T06:11:24.840Z,3.53
2022-11-29T06:14:01.646Z,3.53
2022-11-29T06:16:48.192Z,3.51
2022-11-29T06:19:44.845Z,3.47
2022-11-29T06:22:22.231Z,3.48
2022-11-29T06:24:57.076Z,3.49
2022-11-29T06:27:38.421Z,3.48
2022-11-29T06:30:09.373Z,3.47
2022-11-29T06:32:43.268Z,3.49
2022-11-29T06:35:13.945Z,3.48
2022-11-29T06:37:43.193Z,3.44
2022-11-29T06:40:12.380Z,3.43
2022-11-29T06:42:40.724Z,3.42
2022-11-29T06:45:11.290Z,3.37
2022-11-29T06:47:42.632Z,3.34
2022-11-29T06:50:22.809Z,3.34
2022-11-29T06:52:54.628Z,3.29
2022-11-29T06:55:25.676Z,3.23
2022-11-29T06:58:01.932Z,3.23
2022-11-29T07:00:34.032Z,3.18
2022-11-29T07:03:20.296Z,3.14
2022-11-29T07:05:49.363Z,3.12
2022-11-29T07:08:19.905Z,3.08
2022-11-29T07:10:50.174Z,3.05
2022-11-29T07:13:19.182Z,3.04
2022-11-29T07:15:51.754Z,3.04
2022-11-29T07:18:24.979Z,3.01
2022-11-29T07:20:58.424Z,2.99
2022-11-29T07:23:30.736Z,2.99
2022-11-29T07:26:05.223Z,3.00
2022-11-29T07:28:40.890Z,2.99
2022-11-29T07:31:12.792Z,3.04
2022-11-29T07:33:51.137Z,3.06
2022-11-29T07:36:23.263Z,3.06
2022-11-29T07:38:57.134Z,3.07
2022-11-29T07:41:28.845Z,3.11
2022-11-29T07:44:00.500Z,3.15
2022-11-29T07:46:29.263Z,3.18
2022-11-29T07:48:59.384Z,3.19
2022-11-29T07:51:27.695Z,3.23
2022-11-29T07:53:55.997Z,3.26
2022-11-29T07:56:24.332Z,3.27
2022-11-29T07:58:52.586Z,3.29
2022-11-29T08:01:21.251Z,3.35
2022-11-29T08:03:49.563Z,3.41
2022-11-29T08:06:24.280Z,3.45
2022-11-29T08:08:52.566Z,3.51
2022-11-29T08:11:20.860Z,3.52
2022-11-29T08:13:49.149Z,3.56
2022-11-29T08:16:18.661Z,3.61
2022-11-29T08:18:47.072Z,3.66
2022-11-29T08:21:18.227Z,3.69
2022-11-29T08:23:48.037Z,3.75
2022-11-29T08:26:16.456Z,3.77
2022-11-29T08:28:45.026Z,3.81
2022-11-29T08:31:14.054Z,3.83
2022-11-29T08:33:43.778Z,3.88
2022-11-29T08:36:13.461Z,3.91
2022-11-29T08:38:41.776Z,3.93
2022-11-29T08:41:13.018Z,3.96
2022-11-29T08:43:41.352Z,3.97
2022-11-29T08:46:12.507Z,4.04
2022-11-29T08:48:45.142Z,4.10
2022-11-29T08:51:13.419Z,4.10
2022-11-29T08:53:43.587Z,4.12
2022-11-29T08:56:59.697Z,4.19
2022-11-29T08:59:02.513Z,4.23
2022-11-29T09:01:30.890Z,4.26
2022-11-29T09:04:03.163Z,4.27
2022-11-29T09:06:32.694Z,4.32
2022-11-29T09:09:01.439Z,4.36
2022-11-29T09:11:31.568Z,4.40
2022-11-29T09:14:01.432Z,4.41
2022-11-29T09:16:30.666Z,4.47
2022-11-29T09:18:59.221Z,4.55
2022-11-29T09:21:28.238Z,4.54
2022-11-29T09:23:59.327Z,4.57
2022-11-29T09:26:29.321Z,4.62
2022-11-29T09:29:01.309Z,4.65
2022-11-29T09:31:35.570Z,4.71
2022-11-29T09:34:03.965Z,4.78
2022-11-29T09:36:32.282Z,4.80
2022-11-29T09:39:02.721Z,4.84
2022-11-29T09:41:42.956Z,4.87
2022-11-29T09:44:18.431Z,4.89
2022-11-29T09:46:55.728Z,4.92
2022-11-29T09:49:53.632Z,4.92
2022-11-29T09:52:28.397Z,4.94
2022-11-29T09:55:00.302Z,5.03
2022-11-29T09:57:29.007Z,5.04
2022-11-29T09:59:59.562Z,5.05
2022-11-29T10:02:31.977Z,5.05
2022-11-29T10:05:02.859Z,5.07
2022-11-29T10:07:34.924Z,5.05
2022-11-29T10:10:05.006Z,5.05
2022-11-29T10:12:35.497Z,4.98
2022-11-29T10:15:09.255Z,4.97
2022-11-29T10:17:39.870Z,4.94
2022-11-29T10:20:12.944Z,4.95
2022-11-29T10:22:44.453Z,4.97
2022-11-29T10:25:19.130Z,4.89
2022-11-29T10:27:47.578Z,4.84
2022-11-29T10:30:18.028Z,4.79
2022-11-29T10:32:47.798Z,4.77
2022-11-29T10:35:16.999Z,4.80
2022-11-29T10:38:01.488Z,4.76
2022-11-29T10:40:35.044Z,4.70
2022-11-29T10:43:03.811Z,4.73
2022-11-29T10:45:35.618Z,4.69
2022-11-29T10:48:05.169Z,4.72
2022-11-29T10:50:34.990Z,4.72
2022-11-29T10:53:06.235Z,4.69
2022-11-29T10:55:37.860Z,4.69
2022-11-29T10:58:14.731Z,4.66
2022-11-29T11:00:58.028Z,4.68
2022-11-29T11:03:29.721Z,4.67
2022-11-29T11:05:59.783Z,4.65
2022-11-29T11:08:28.236Z,4.67
2022-11-29T11:11:01.760Z,4.67
2022-11-29T11:13:31.259Z,4.70
2022-11-29T11:16:09.441Z,4.72
2022-11-29T11:18:38.364Z,4.73
2022-11-29T11:21:09.367Z,4.74
2022-11-29T11:23:42.649Z,4.73
2022-11-29T11:26:12.713Z,4.73
2022-11-29T11:28:43.442Z,4.71
2022-11-29T11:31:13.329Z,4.75
2022-11-29T11:33:42.342Z,4.79
2022-11-29T11:36:13.493Z,4.78
2022-11-29T11:38:42.766Z,4.83
2022-11-29T11:41:45.983Z,4.87
2022-11-29T11:44:46.490Z,4.94
2022-11-29T11:47:17.783Z,4.92
2022-11-29T11:49:52.676Z,4.93
2022-11-29T11:52:22.283Z,4.91
2022-11-29T11:54:53.496Z,4.94
2022-11-29T11:57:22.393Z,4.95
2022-11-29T11:59:50.788Z,4.94
2022-11-29T12:02:39.181Z,4.97
2022-11-29T12:05:12.834Z,4.93
2022-11-29T12:08:07.449Z,4.94
2022-11-29T12:10:34.799Z,4.93
2022-11-29T12:13:03.246Z,4.91
2022-11-29T12:15:32.564Z,4.89
2022-11-29T12:18:04.506Z,4.89
2022-11-29T12:20:35.411Z,4.89
2022-11-29T12:23:25.196Z,4.91
2022-11-29T12:25:55.160Z,4.94
2022-11-29T12:28:25.523Z,4.92
2022-11-29T12:30:56.918Z,4.89
2022-11-29T12:33:32.680Z,4.91
2022-11-29T12:36:11.923Z,4.92
2022-11-29T12:38:56.324Z,4.95
2022-11-29T12:41:33.362Z,4.95
2022-11-29T12:44:06.590Z,4.96
2022-11-29T12:46:35.362Z,4.91
2022-11-29T12:49:09.493Z,4.93
2022-11-29T12:51:42.552Z,4.96
2022-11-29T12:54:24.827Z,4.94
2022-11-29T12:56:55.870Z,4.97
2022-11-29T12:59:31.426Z,4.94
2022-11-29T13:02:08.918Z,4.96
2022-11-29T13:04:40.949Z,4.99
2022-11-29T13:07:12.434Z,4.97
2022-11-29T13:09:54.485Z,4.96
2022-11-29T13:12:24.967Z,4.95
2022-11-29T13:14:56.060Z,4.95
2022-11-29T13:17:29.357Z,4.97
2022-11-29T13:19:59.853Z,4.97
2022-11-29T13:22:30.391Z,4.96
2022-11-29T13:25:00.630Z,4.96
2022-11-29T13:27:31.405Z,4.93
2022-11-29T13:30:00.181Z,4.93
2022-11-29T13:32:32.785Z,4.89
2022-11-29T13:35:04.108Z,4.86
2022-11-29T13:37:34.531Z,4.85
2022-11-29T13:40:08.648Z,4.84
2022-11-29T13:42:39.857Z,4.84
2022-11-29T13:45:14.647Z,4.83
2022-11-29T13:47:49.883Z,4.80
2022-11-29T13:50:40.325Z,4.79
2022-11-29T13:53:15.148Z,4.77
2022-11-29T13:55:50.336Z,4.74
2022-11-29T13:58:36.081Z,4.73
2022-11-29T14:01:07.747Z,4.72
2022-11-29T14:03:40.037Z,4.70
2022-11-29T14:06:21.338Z,4.69
2022-11-29T14:09:19.607Z,4.69
2022-11-29T14:11:50.241Z,4.62
2022-11-29T14:14:24.859Z,4.59
2022-11-29T14:16:54.761Z,4.59
2022-11-29T14:19:27.642Z,4.58
2022-11-29T14:22:33.148Z,4.59
2022-11-29T14:28:37.802Z,4.55
2022-11-29T14:31:06.478Z,4.53
2022-11-29T14:33:44.135Z,4.53
2022-11-29T14:36:39.841Z,4.51
2022-11-29T14:39:38.840Z,4.49
2022-11-29T14:42:17.299Z,4.49
2022-11-29T14:44:47.715Z,4.48
2022-11-29T14:47:24.283Z,4.46
2022-11-29T14:49:53.078Z,4.45
2022-11-29T14:52:26.237Z,4.42
2022-11-29T14:55:10.414Z,4.40
2022-11-29T14:58:15.253Z,4.38
2022-11-29T15:01:08.117Z,4.34
2022-11-29T15:03:48.264Z,4.32
2022-11-29T15:06:19.214Z,4.31
2022-11-29T15:08:56.031Z,4.32
2022-11-29T15:11:33.426Z,4.31
2022-11-29T15:14:05.181Z,4.29
2022-11-29T15:16:41.331Z,4.27
2022-11-29T15:19:38.784Z,4.26
2022-11-29T15:22:10.025Z,4.26
2022-11-29T15:24:51.583Z,4.23
2022-11-29T15:27:21.512Z,4.22
2022-11-29T15:29:50.666Z,4.20
2022-11-29T15:32:23.359Z,4.19
2022-11-29T15:34:52.241Z,4.18
2022-11-29T15:37:24.399Z,4.16
2022-11-29T15:40:02.387Z,4.16
2022-11-29T15:42:39.726Z,4.14
2022-11-29T15:45:33.615Z,4.14
2022-11-29T15:48:19.560Z,4.13
2022-11-29T15:50:54.499Z,4.13
2022-11-29T15:53:24.718Z,4.14
2022-11-29T15:55:53.733Z,4.11
2022-11-29T15:58:23.819Z,4.10
2022-11-29T16:00:52.240Z,4.10
2022-11-29T16:03:23.467Z,4.07
2022-11-29T16:05:53.883Z,4.06
2022-11-29T16:08:22.432Z,4.08
2022-11-29T16:10:53.173Z,4.10
2022-11-29T16:13:35.735Z,4.08
2022-11-29T16:16:10.416Z,4.07
2022-11-29T16:18:40.788Z,4.07
2022-11-29T16:21:09.253Z,4.06
2022-11-29T16:23:38.369Z,4.03
2022-11-29T16:26:11.360Z,4.01
2022-11-29T16:28:44.428Z,4.03
2022-11-29T16:31:18.079Z,4.01
2022-11-29T16:33:49.112Z,4.02
2022-11-29T16:36:18.962Z,4.01
2022-11-29T16:38:48.024Z,4.01
2022-11-29T16:41:31.557Z,4.02
2022-11-29T16:44:03.607Z,3.99
2022-11-29T16:46:39.272Z,3.99
2022-11-29T16:49:34.271Z,3.99
2022-11-29T16:52:02.895Z,4.00
2022-11-29T16:54:34.286Z,3.97
2022-11-29T16:57:04.651Z,3.98
2022-11-29T16:59:35.444Z,3.95
2022-11-29T17:02:03.945Z,3.92
2022-11-29T17:04:32.398Z,3.94
2022-11-29T17:07:01.108Z,3.94
2022-11-29T17:09:30.520Z,3.93
2022-11-29T17:12:00.051Z,3.89
2022-11-29T17:14:30.296Z,3.89
2022-11-29T17:17:03.385Z,3.88
2022-11-29T17:19:32.112Z,3.86
2022-11-29T17:22:00.770Z,3.86
2022-11-29T17:24:29.120Z,3.84
2022-11-29T17:26:57.499Z,3.82
2022-11-29T17:29:25.818Z,3.82
2022-11-29T17:31:54.184Z,3.80
2022-11-29T17:34:24.069Z,3.80
2022-11-29T17:36:52.542Z,3.81
2022-11-29T17:39:21.735Z,3.81
2022-11-29T17:41:50.111Z,3.78
2022-11-29T17:44:18.759Z,3.79
2022-11-29T17:46:47.052Z,3.81
2022-11-29T17:49:15.451Z,3.78
2022-11-29T17:51:53.480Z,3.75
2022-11-29T17:54:22.345Z,3.73
2022-11-29T17:56:50.901Z,3.74
2022-11-29T17:59:19.532Z,3.73
2022-11-29T18:01:48.318Z,3.72
2022-11-29T18:04:16.870Z,3.72
2022-11-29T18:06:50.357Z,3.72
2022-11-29T18:09:19.599Z,3.71
2022-11-29T18:11:49.973Z,3.71
2022-11-29T18:14:19.610Z,3.69
2022-11-29T18:16:48.103Z,3.70
2022-11-29T18:19:17.621Z,3.71
2022-11-29T18:21:47.528Z,3.68
2022-11-29T18:24:15.899Z,3.68
2022-11-29T18:26:44.809Z,3.69
2022-11-29T18:29:13.141Z,3.68
2022-11-29T18:31:42.700Z,3.67
2022-11-29T18:34:11.629Z,3.67
2022-11-29T18:36:43.084Z,3.68
2022-11-29T18:39:15.168Z,3.67
2022-11-29T18:41:43.868Z,3.63
2022-11-29T18:44:13.088Z,3.62
2022-11-29T18:46:43.127Z,3.60
2022-11-29T18:49:12.577Z,3.59
2022-11-29T18:51:42.351Z,3.60
2022-11-29T18:54:12.498Z,3.61
2022-11-29T18:56:40.943Z,3.59
2022-11-29T18:59:10.547Z,3.63
2022-11-29T19:01:41.285Z,3.62
2022-11-29T19:04:10.261Z,3.64
2022-11-29T19:06:39.971Z,3.62
2022-11-29T19:09:09.939Z,3.64
2022-11-29T19:11:39.821Z,3.64
2022-11-29T19:14:11.452Z,3.65
2022-11-29T19:16:40.860Z,3.67
2022-11-29T19:19:09.410Z,3.67
2022-11-29T19:21:39.781Z,3.65
2022-11-29T19:24:14.077Z,3.62
2022-11-29T19:26:45.677Z,3.62
2022-11-29T19:29:14.221Z,3.61
2022-11-29T19:31:42.854Z,3.59
2022-11-29T19:34:11.343Z,3.59
2022-11-29T19:36:43.337Z,3.60
2022-11-29T19:39:13.019Z,3.62
2022-11-29T19:41:41.592Z,3.65
2022-11-29T19:44:11.671Z,3.64
2022-11-29T19:46:40.932Z,3.62
2022-11-29T19:49:09.909Z,3.58
2022-11-29T19:51:38.238Z,3.57
2022-11-29T19:54:07.330Z,3.54
2022-11-29T19:56:35.693Z,3.53
2022-11-29T19:59:03.991Z,3.50
2022-11-29T20:01:40.646Z,3.50
2022-11-29T20:04:10.528Z,3.49
2022-11-29T20:06:38.977Z,3.51
2022-11-29T20:09:09.908Z,3.51
2022-11-29T20:11:38.393Z,3.47
2022-11-29T20:14:22.665Z,3.47
2022-11-29T20:16:58.948Z,3.44
2022-11-29T20:19:28.332Z,3.46
2022-11-29T20:21:56.733Z,3.48
2022-11-29T20:24:25.050Z,3.49
2022-11-29T20:26:53.501Z,3.48
2022-11-29T20:29:27.522Z,3.45
2022-11-29T20:31:57.333Z,3.46
2022-11-29T20:34:26.045Z,3.45
2022-11-29T20:37:08.083Z,3.45
2022-11-29T20:39:39.616Z,3.44
2022-11-29T20:42:22.132Z,3.44
2022-11-29T20:44:53.234Z,3.42
2022-11-29T20:47:25.716Z,3.41
2022-11-29T20:49:54.777Z,3.39
2022-11-29T20:52:32.719Z,3.39
2022-11-29T20:55:01.099Z,3.36
2022-11-29T20:57:29.801Z,3.35
2022-11-29T21:00:01.260Z,3.34
2022-11-29T21:02:31.102Z,3.34
2022-11-29T21:04:59.718Z,3.34
2022-11-29T21:07:29.309Z,3.32
2022-11-29T21:10:01.126Z,3.31
2022-11-29T21:12:30.791Z,3.35
2022-11-29T21:14:59.535Z,3.36
2022-11-29T21:17:33.345Z,3.33
2022-11-29T21:20:04.506Z,3.35
2022-11-29T21:22:39.935Z,3.34
2022-11-29T21:25:11.878Z,3.33
2022-11-29T21:27:40.811Z,3.31
2022-11-29T21:30:17.881Z,3.29
2022-11-29T21:32:47.200Z,3.31
2022-11-29T21:35:17.125Z,3.30
2022-11-29T21:37:45.541Z,3.34
2022-11-29T21:40:15.219Z,3.34
2022-11-29T21:42:43.767Z,3.37
2022-11-29T21:45:15.680Z,3.36
2022-11-29T21:47:44.471Z,3.40
2022-11-29T21:50:13.529Z,3.42
2022-11-29T21:52:44.473Z,3.39
2022-11-29T21:55:12.856Z,3.40
2022-11-29T21:57:41.153Z,3.40
2022-11-29T22:00:10.492Z,3.42
2022-11-29T22:02:38.883Z,3.41
2022-11-29T22:05:09.743Z,3.40
2022-11-29T22:07:38.340Z,3.43
2022-11-29T22:10:13.326Z,3.42
2022-11-29T22:12:49.468Z,3.39
2022-11-29T22:15:24.519Z,3.41
2022-11-29T22:17:54.214Z,3.41
2022-11-29T22:20:22.863Z,3.42
2022-11-29T22:22:55.738Z,3.39
2022-11-29T22:25:28.336Z,3.40
2022-11-29T22:27:56.657Z,3.41
2022-11-29T22:30:25.051Z,3.39
2022-11-29T22:32:53.688Z,3.41
2022-11-29T22:35:22.384Z,3.42
2022-11-29T22:37:50.750Z,3.43
2022-11-29T22:40:19.280Z,3.44
2022-11-29T22:42:49.061Z,3.45
2022-11-29T22:45:17.819Z,3.46
2022-11-29T22:47:46.831Z,3.44
2022-11-29T22:50:15.515Z,3.44
2022-11-29T22:52:43.913Z,3.43
2022-11-29T22:55:12.773Z,3.41
2022-11-29T22:57:41.125Z,3.41
2022-11-29T23:00:13.797Z,3.41
2022-11-29T23:02:42.201Z,3.42
2022-11-29T23:05:10.828Z,3.39
2022-11-29T23:07:39.300Z,3.40
2022-11-29T23:10:09.107Z,3.39
2022-11-29T23:12:37.876Z,3.35
2022-11-29T23:15:07.104Z,3.38
2022-11-29T23:17:36.831Z,3.34
2022-11-29T23:20:05.918Z,3.36
2022-11-29T23:22:39.251Z,3.36
2022-11-29T23:25:08.063Z,3.36
2022-11-29T23:27:36.461Z,3.36
2022-11-29T23:30:05.209Z,3.36
2022-11-29T23:32:33.583Z,3.36
2022-11-29T23:35:03.299Z,3.33
2022-11-29T23:37:31.676Z,3.32
2022-11-29T23:40:00.325Z,3.33
2022-11-29T23:42:28.668Z,3.33
2022-11-29T23:44:57.481Z,3.32
2022-11-29T23:47:25.750Z,3.26
2022-11-29T23:49:54.041Z,3.26
2022-11-29T23:52:24.202Z,3.25
2022-11-29T23:54:52.667Z,3.24
2022-11-29T23:57:21.149Z,3.25
2022-11-29T23:59:50.214Z,3.25
